Stacja Pogody
Warszawa Praga-Północ

Szerokość 52°15'43"N Długość 21°01'22"E Wysokość 110m n.p.m.

Depesza TAF dla Warszawy

TAF EPWA 192330Z 2000/2024 33005KT CAVOK   
    
Stacja: Warszawa - Okęcie                                                              
Dzień miesiąca: 19, godzina: 23:30 UTC                                                           
Wiatr: kierunek 337.5° (północny północno zachodni), prędkość 9.3 km/h (2 w skali Beauforta)
Widzialność:  ponad 10 km